createdAt,value
2022-10-29T00:03:44.484Z,19.1
2022-10-29T00:08:44.484Z,19.1
2022-10-29T00:13:44.505Z,19
2022-10-29T00:18:44.490Z,19
2022-10-29T00:23:44.481Z,19
2022-10-29T00:28:44.487Z,18.9
2022-10-29T00:33:44.491Z,18.9
2022-10-29T00:38:44.469Z,18.9
2022-10-29T00:43:44.474Z,18.9
2022-10-29T00:48:44.479Z,18.9
2022-10-29T00:53:44.509Z,18.9
2022-10-29T00:58:44.470Z,18.8
2022-10-29T01:03:44.472Z,18.8
2022-10-29T01:08:44.466Z,18.8
2022-10-29T01:13:44.488Z,18.8
2022-10-29T01:18:44.509Z,18.8
2022-10-29T01:23:44.463Z,18.8
2022-10-29T01:28:44.537Z,18.8
2022-10-29T01:33:44.489Z,18.7
2022-10-29T01:38:44.472Z,18.7
2022-10-29T01:43:44.463Z,18.6
2022-10-29T01:48:44.451Z,18.6
2022-10-29T01:53:44.477Z,18.6
2022-10-29T01:58:44.449Z,18.6
2022-10-29T02:03:44.476Z,18.6
2022-10-29T02:08:44.456Z,18.6
2022-10-29T02:13:44.482Z,18.6
2022-10-29T02:18:44.454Z,18.5
2022-10-29T02:23:44.463Z,18.5
2022-10-29T02:28:44.457Z,18.4
2022-10-29T02:33:44.478Z,18.4
2022-10-29T02:38:44.461Z,18.4
2022-10-29T02:43:44.517Z,18.4
2022-10-29T02:48:44.552Z,18.4
2022-10-29T02:53:44.614Z,18.3
2022-10-29T02:58:44.657Z,18.3
2022-10-29T03:03:44.802Z,18.3
2022-10-29T03:08:44.778Z,18.3
2022-10-29T03:13:44.826Z,18.3
2022-10-29T03:18:44.886Z,18.2
2022-10-29T03:23:44.869Z,18.2
2022-10-29T03:33:45.010Z,18.1
2022-10-29T03:38:44.791Z,18.1
2022-10-29T03:43:44.869Z,18.1
2022-10-29T03:48:44.787Z,18
2022-10-29T03:53:44.857Z,18
2022-10-29T03:58:44.789Z,17.9
2022-10-29T04:03:44.784Z,17.9
2022-10-29T04:08:44.778Z,17.9
2022-10-29T04:13:44.811Z,17.9
2022-10-29T04:18:44.784Z,17.8
2022-10-29T04:28:44.936Z,17.8
2022-10-29T04:33:45.027Z,17.8
2022-10-29T04:38:44.799Z,17.8
2022-10-29T04:43:44.909Z,17.7
2022-10-29T04:48:44.829Z,17.7
2022-10-29T04:53:44.826Z,17.7
2022-10-29T04:58:44.796Z,17.6
2022-10-29T05:03:44.799Z,17.6
2022-10-29T05:08:44.794Z,17.6
2022-10-29T05:13:44.827Z,17.6
2022-10-29T05:18:44.803Z,17.5
2022-10-29T05:23:44.784Z,17.5
2022-10-29T05:28:44.808Z,17.5
2022-10-29T05:33:44.807Z,17.4
2022-10-29T05:38:44.788Z,17.4
2022-10-29T05:43:44.787Z,17.4
2022-10-29T05:48:44.787Z,17.4
2022-10-29T05:53:44.810Z,17.3
2022-10-29T05:58:44.774Z,17.3
2022-10-29T06:03:44.813Z,17.3
2022-10-29T06:08:44.772Z,17.3
2022-10-29T06:13:44.796Z,17.3
2022-10-29T06:18:44.806Z,17.2
2022-10-29T06:23:44.781Z,17.2
2022-10-29T06:28:44.761Z,17.1
2022-10-29T06:33:44.904Z,17.1
2022-10-29T06:38:44.774Z,17.1
2022-10-29T06:43:44.763Z,17.1
2022-10-29T06:48:44.761Z,17.1
2022-10-29T06:53:44.796Z,17.1
2022-10-29T06:58:44.772Z,17
2022-10-29T07:03:44.778Z,17
2022-10-29T07:08:44.766Z,17
2022-10-29T07:13:44.786Z,17
2022-10-29T07:18:44.759Z,17
2022-10-29T07:23:44.783Z,17
2022-10-29T07:28:44.758Z,16.9
2022-10-29T07:33:44.785Z,16.9
2022-10-29T07:38:44.755Z,16.9
2022-10-29T07:43:44.758Z,16.9
2022-10-29T07:48:44.751Z,16.9
2022-10-29T07:53:44.783Z,16.9
2022-10-29T07:58:44.760Z,17
2022-10-29T08:03:44.757Z,17
2022-10-29T08:08:44.748Z,17
2022-10-29T08:13:44.773Z,17
2022-10-29T08:18:44.740Z,17.1
2022-10-29T08:23:44.749Z,17.1
2022-10-29T08:28:44.751Z,17.1
2022-10-29T08:33:44.780Z,17.1
2022-10-29T08:38:44.746Z,17.1
2022-10-29T08:43:47.501Z,17.2
2022-10-29T08:48:44.763Z,17.2
2022-10-29T08:53:45.409Z,17.3
2022-10-29T08:58:44.769Z,17.3
2022-10-29T09:03:44.758Z,17.3
2022-10-29T09:08:44.763Z,17.4
2022-10-29T09:13:44.814Z,17.4
2022-10-29T09:18:44.754Z,17.4
2022-10-29T09:23:44.769Z,17.5
2022-10-29T09:28:44.754Z,17.6
2022-10-29T09:33:44.781Z,17.6
2022-10-29T09:38:44.935Z,17.6
2022-10-29T09:43:44.763Z,17.7
2022-10-29T09:48:44.757Z,17.8
2022-10-29T09:53:44.775Z,17.8
2022-10-29T09:58:44.750Z,17.8
2022-10-29T10:03:44.751Z,17.9
2022-10-29T10:08:44.756Z,17.9
2022-10-29T10:13:44.790Z,18
2022-10-29T10:23:44.756Z,18.1
2022-10-29T10:28:44.751Z,18.1
2022-10-29T10:33:44.799Z,18.2
2022-10-29T10:38:44.756Z,18.2
2022-10-29T10:43:44.743Z,18.3
2022-10-29T10:48:44.737Z,18.3
2022-10-29T10:53:44.753Z,18.4
2022-10-29T10:58:44.730Z,18.5
2022-10-29T11:03:44.752Z,18.6
2022-10-29T11:08:44.734Z,18.6
2022-10-29T11:13:44.760Z,18.7
2022-10-29T11:18:44.731Z,18.8
2022-10-29T11:23:44.772Z,18.8
2022-10-29T11:28:44.738Z,18.9
2022-10-29T11:33:44.793Z,18.9
2022-10-29T11:38:44.731Z,19.1
2022-10-29T11:43:44.723Z,19.1
2022-10-29T11:48:44.714Z,19.3
2022-10-29T11:53:44.748Z,19.3
2022-10-29T11:58:44.723Z,19.4
2022-10-29T12:03:44.755Z,19.5
2022-10-29T12:08:44.716Z,19.6
2022-10-29T12:13:44.741Z,19.7
2022-10-29T12:18:44.710Z,19.8
2022-10-29T12:23:44.713Z,19.9
2022-10-29T12:28:44.731Z,19.9
2022-10-29T12:33:44.736Z,20
2022-10-29T12:38:44.713Z,20.1
2022-10-29T12:43:44.712Z,20.1
2022-10-29T12:48:44.709Z,20.3
2022-10-29T12:53:44.757Z,20.3
2022-10-29T12:58:44.710Z,20.4
2022-10-29T13:03:44.705Z,20.4
2022-10-29T13:08:44.704Z,20.6
2022-10-29T13:13:44.724Z,20.6
2022-10-29T13:18:44.705Z,20.7
2022-10-29T13:23:44.694Z,20.8
2022-10-29T13:28:44.704Z,20.9
2022-10-29T13:33:44.716Z,20.9
2022-10-29T13:38:57.583Z,21
2022-10-29T13:43:44.878Z,21.1
2022-10-29T13:48:44.692Z,21.2
2022-10-29T13:53:44.716Z,21.3
2022-10-29T13:58:44.686Z,21.3
2022-10-29T14:03:44.697Z,21.4
2022-10-29T14:08:44.688Z,21.4
2022-10-29T14:13:44.706Z,21.4
2022-10-29T14:18:44.680Z,21.5
2022-10-29T14:23:44.746Z,21.6
2022-10-29T14:28:44.683Z,21.6
2022-10-29T14:33:44.705Z,21.6
2022-10-29T14:38:44.678Z,21.6
2022-10-29T14:43:44.674Z,21.6
2022-10-29T14:48:44.672Z,21.7
2022-10-29T14:53:44.699Z,21.7
2022-10-29T14:58:44.669Z,21.7
2022-10-29T15:03:44.791Z,21.8
2022-10-29T15:08:44.668Z,21.8
2022-10-29T15:13:44.685Z,21.8
2022-10-29T15:18:44.660Z,21.8
2022-10-29T15:23:44.663Z,21.7
2022-10-29T15:28:44.664Z,21.7
2022-10-29T15:33:44.671Z,21.7
2022-10-29T15:38:48.088Z,21.7
2022-10-29T15:43:44.667Z,21.7
2022-10-29T15:48:44.653Z,21.6
2022-10-29T15:53:44.684Z,21.6
2022-10-29T15:58:44.655Z,21.6
2022-10-29T16:03:44.661Z,21.6
2022-10-29T16:08:44.647Z,21.6
2022-10-29T16:13:44.666Z,21.6
2022-10-29T16:18:44.656Z,21.5
2022-10-29T16:23:44.644Z,21.5
2022-10-29T16:28:44.653Z,21.4
2022-10-29T16:33:44.672Z,21.4
2022-10-29T16:38:44.638Z,21.4
2022-10-29T16:43:44.649Z,21.4
2022-10-29T16:48:44.643Z,21.3
2022-10-29T16:53:44.672Z,21.3
2022-10-29T16:58:44.642Z,21.3
2022-10-29T17:03:44.644Z,21.2
2022-10-29T17:08:44.651Z,21.2
2022-10-29T17:13:44.664Z,21.1
2022-10-29T17:18:44.634Z,21.1
2022-10-29T17:23:44.716Z,21.1
2022-10-29T17:28:44.650Z,21.1
2022-10-29T17:33:44.707Z,21
2022-10-29T17:38:44.633Z,20.9
2022-10-29T17:43:44.647Z,20.9
2022-10-29T17:48:44.758Z,20.9
2022-10-29T17:53:44.664Z,20.8
2022-10-29T17:58:44.632Z,20.8
2022-10-29T18:03:44.633Z,20.8
2022-10-29T18:08:44.637Z,20.7
2022-10-29T18:13:44.638Z,20.6
2022-10-29T18:18:54.136Z,20.6
2022-10-29T18:23:44.614Z,20.6
2022-10-29T18:28:44.658Z,20.5
2022-10-29T18:33:44.627Z,20.4
2022-10-29T18:38:44.623Z,20.4
2022-10-29T18:43:44.608Z,20.4
2022-10-29T18:48:44.608Z,20.3
2022-10-29T18:53:44.626Z,20.3
2022-10-29T18:58:44.600Z,20.2
2022-10-29T19:03:44.624Z,20.2
2022-10-29T19:08:44.615Z,20.1
2022-10-29T19:13:44.626Z,20.1
2022-10-29T19:18:44.620Z,20
2022-10-29T19:23:44.619Z,20
2022-10-29T19:28:44.608Z,19.9
2022-10-29T19:33:44.641Z,19.9
2022-10-29T19:38:44.630Z,19.9
2022-10-29T19:43:44.622Z,19.9
2022-10-29T19:48:44.605Z,19.8
2022-10-29T19:53:44.628Z,19.8
2022-10-29T19:58:44.634Z,19.8
2022-10-29T20:03:44.612Z,19.7
2022-10-29T20:08:44.619Z,19.7
2022-10-29T20:13:44.627Z,19.6
2022-10-29T20:18:44.611Z,19.6
2022-10-29T20:23:44.609Z,19.5
2022-10-29T20:28:44.598Z,19.5
2022-10-29T20:33:44.628Z,19.4
2022-10-29T20:38:44.589Z,19.4
2022-10-29T20:43:44.592Z,19.4
2022-10-29T20:48:44.584Z,19.3
2022-10-29T20:53:44.625Z,19.3
2022-10-29T20:58:44.589Z,19.3
2022-10-29T21:03:44.602Z,19.2
2022-10-29T21:08:44.584Z,19.1
2022-10-29T21:13:44.623Z,19.1
2022-10-29T21:18:44.595Z,19.1
2022-10-29T21:23:44.607Z,19
2022-10-29T21:28:44.706Z,19
2022-10-29T21:33:44.752Z,18.9
2022-10-29T21:38:44.671Z,18.9
2022-10-29T21:43:44.663Z,18.9
2022-10-29T21:48:44.690Z,18.9
2022-10-29T21:53:44.930Z,18.8
2022-10-29T21:58:44.708Z,18.8
2022-10-29T22:03:44.714Z,18.8
2022-10-29T22:08:44.766Z,18.8
2022-10-29T22:13:44.786Z,18.8
2022-10-29T22:18:44.809Z,18.7
2022-10-29T22:23:44.826Z,18.7
2022-10-29T22:28:44.815Z,18.6
2022-10-29T22:33:45.026Z,18.6
2022-10-29T22:38:44.904Z,18.6
2022-10-29T22:43:44.811Z,18.6
2022-10-29T22:48:44.826Z,18.6
2022-10-29T22:53:44.896Z,18.5
2022-10-29T22:58:44.816Z,18.5
2022-10-29T23:03:44.862Z,18.4
2022-10-29T23:08:44.813Z,18.4
2022-10-29T23:13:45.102Z,18.4
2022-10-29T23:18:44.820Z,18.4
2022-10-29T23:23:44.822Z,18.4
2022-10-29T23:28:44.807Z,18.4
2022-10-29T23:33:44.851Z,18.3
2022-10-29T23:38:44.814Z,18.3
2022-10-29T23:43:44.809Z,18.3
2022-10-29T23:48:44.810Z,18.3
2022-10-29T23:53:45.161Z,18.3
2022-10-29T23:58:44.819Z,18.2
